< < Back
Terminal Aerodrome Forecast


Current Version              Previous Versions:   1  2  3  4  5  6  7  8  9  

Terminal Aerodrome Forecast

538
FTUS42 KILM 311100
TAFILM
TAF
KILM 311121Z 3112/0112 VRB05KT P6SM VCSH SCT015 SCT080
      TEMPO 3113/3116 -SHRA BKN020
     FM311600 16008KT P6SM SCT030
     FM010200 20004KT P6SM SCT015=

Latest METAR

411
SAUS70 KWBC 011400 RRJ
MTRILM
METAR KILM 011353Z AUTO 25007KT 10SM SCT016 28/24 A3012 RMK AO2 SLP199
T02830244


USA.gov is the U.S. government's official web portal to all federal, state and local government web resources and services.